sensor_id;sensor_type;location;lat;lon;timestamp;P1;durP1;ratioP1;P2;durP2;ratioP2
36189;SDS011;22232;50.914;13.858;2024-03-07T00:00:47;61.33;;;28.95;;
36189;SDS011;22232;50.914;13.858;2024-03-07T00:03:15;63.30;;;29.75;;
36189;SDS011;22232;50.914;13.858;2024-03-07T00:05:45;58.92;;;28.88;;
36189;SDS011;22232;50.914;13.858;2024-03-07T00:08:12;67.30;;;29.67;;
36189;SDS011;22232;50.914;13.858;2024-03-07T00:10:40;66.75;;;31.25;;
36189;SDS011;22232;50.914;13.858;2024-03-07T00:13:11;64.88;;;31.08;;
36189;SDS011;22232;50.914;13.858;2024-03-07T00:15:40;67.70;;;31.42;;
36189;SDS011;22232;50.914;13.858;2024-03-07T00:18:08;65.93;;;29.63;;
36189;SDS011;22232;50.914;13.858;2024-03-07T00:20:38;67.85;;;32.13;;
36189;SDS011;22232;50.914;13.858;2024-03-07T00:23:05;72.72;;;32.30;;
36189;SDS011;22232;50.914;13.858;2024-03-07T00:25:33;67.43;;;31.73;;
36189;SDS011;22232;50.914;13.858;2024-03-07T00:28:01;71.85;;;32.25;;
36189;SDS011;22232;50.914;13.858;2024-03-07T00:30:31;72.90;;;33.85;;
36189;SDS011;22232;50.914;13.858;2024-03-07T00:33:01;73.75;;;32.20;;
36189;SDS011;22232;50.914;13.858;2024-03-07T00:35:28;72.53;;;32.28;;
36189;SDS011;22232;50.914;13.858;2024-03-07T00:37:56;69.10;;;32.28;;
36189;SDS011;22232;50.914;13.858;2024-03-07T00:40:24;73.38;;;33.75;;
36189;SDS011;22232;50.914;13.858;2024-03-07T00:42:52;76.93;;;34.45;;
36189;SDS011;22232;50.914;13.858;2024-03-07T00:45:20;75.35;;;34.90;;
36189;SDS011;22232;50.914;13.858;2024-03-07T00:47:47;85.78;;;36.55;;
36189;SDS011;22232;50.914;13.858;2024-03-07T00:50:15;80.97;;;36.53;;
36189;SDS011;22232;50.914;13.858;2024-03-07T00:52:43;99.25;;;39.28;;
36189;SDS011;22232;50.914;13.858;2024-03-07T00:55:11;103.97;;;38.80;;
36189;SDS011;22232;50.914;13.858;2024-03-07T00:57:38;148.52;;;42.17;;
36189;SDS011;22232;50.914;13.858;2024-03-07T01:00:06;93.60;;;37.63;;
36189;SDS011;22232;50.914;13.858;2024-03-07T01:02:41;90.93;;;37.95;;
36189;SDS011;22232;50.914;13.858;2024-03-07T01:05:12;99.85;;;38.67;;
36189;SDS011;22232;50.914;13.858;2024-03-07T01:07:45;191.40;;;45.63;;
36189;SDS011;22232;50.914;13.858;2024-03-07T01:10:15;96.22;;;40.45;;
36189;SDS011;22232;50.914;13.858;2024-03-07T01:12:43;130.43;;;39.53;;
36189;SDS011;22232;50.914;13.858;2024-03-07T01:15:11;91.95;;;38.17;;
36189;SDS011;22232;50.914;13.858;2024-03-07T01:17:39;116.90;;;40.85;;
36189;SDS011;22232;50.914;13.858;2024-03-07T01:20:07;94.88;;;38.15;;
36189;SDS011;22232;50.914;13.858;2024-03-07T01:22:36;194.43;;;44.58;;
36189;SDS011;22232;50.914;13.858;2024-03-07T01:25:03;218.85;;;46.47;;
36189;SDS011;22232;50.914;13.858;2024-03-07T01:27:32;172.60;;;46.85;;
36189;SDS011;22232;50.914;13.858;2024-03-07T01:30:00;299.70;;;52.72;;
36189;SDS011;22232;50.914;13.858;2024-03-07T01:32:30;241.98;;;49.65;;
36189;SDS011;22232;50.914;13.858;2024-03-07T01:34:58;166.27;;;46.60;;
36189;SDS011;22232;50.914;13.858;2024-03-07T01:37:26;387.75;;;59.22;;
36189;SDS011;22232;50.914;13.858;2024-03-07T01:39:54;156.07;;;47.30;;
36189;SDS011;22232;50.914;13.858;2024-03-07T01:42:21;424.85;;;61.50;;
36189;SDS011;22232;50.914;13.858;2024-03-07T01:44:49;386.50;;;62.90;;
36189;SDS011;22232;50.914;13.858;2024-03-07T01:47:17;456.33;;;63.88;;
36189;SDS011;22232;50.914;13.858;2024-03-07T01:49:45;189.63;;;48.95;;
36189;SDS011;22232;50.914;13.858;2024-03-07T01:52:12;217.82;;;49.70;;
36189;SDS011;22232;50.914;13.858;2024-03-07T01:54:41;223.98;;;52.78;;
36189;SDS011;22232;50.914;13.858;2024-03-07T01:57:08;239.85;;;50.03;;
36189;SDS011;22232;50.914;13.858;2024-03-07T01:59:37;310.48;;;54.67;;
36189;SDS011;22232;50.914;13.858;2024-03-07T02:02:05;204.38;;;48.92;;
36189;SDS011;22232;50.914;13.858;2024-03-07T02:04:32;172.10;;;46.10;;
36189;SDS011;22232;50.914;13.858;2024-03-07T02:07:00;283.95;;;52.15;;
36189;SDS011;22232;50.914;13.858;2024-03-07T02:09:27;255.32;;;53.13;;
36189;SDS011;22232;50.914;13.858;2024-03-07T02:11:55;306.88;;;53.60;;
36189;SDS011;22232;50.914;13.858;2024-03-07T02:14:23;210.52;;;47.65;;
36189;SDS011;22232;50.914;13.858;2024-03-07T02:16:50;196.25;;;46.90;;
36189;SDS011;22232;50.914;13.858;2024-03-07T02:19:18;132.70;;;43.60;;
36189;SDS011;22232;50.914;13.858;2024-03-07T02:21:46;132.50;;;43.65;;
36189;SDS011;22232;50.914;13.858;2024-03-07T02:24:13;141.02;;;46.47;;
36189;SDS011;22232;50.914;13.858;2024-03-07T02:26:42;164.88;;;47.75;;
36189;SDS011;22232;50.914;13.858;2024-03-07T02:29:10;216.00;;;49.97;;
36189;SDS011;22232;50.914;13.858;2024-03-07T02:31:38;131.90;;;44.90;;
36189;SDS011;22232;50.914;13.858;2024-03-07T02:34:08;236.40;;;50.88;;
36189;SDS011;22232;50.914;13.858;2024-03-07T02:36:36;134.70;;;44.80;;
36189;SDS011;22232;50.914;13.858;2024-03-07T02:39:04;129.45;;;44.60;;
36189;SDS011;22232;50.914;13.858;2024-03-07T02:41:31;154.25;;;48.80;;
36189;SDS011;22232;50.914;13.858;2024-03-07T02:44:01;132.70;;;46.60;;
36189;SDS011;22232;50.914;13.858;2024-03-07T02:46:31;166.82;;;47.35;;
36189;SDS011;22232;50.914;13.858;2024-03-07T02:48:59;223.43;;;50.90;;
36189;SDS011;22232;50.914;13.858;2024-03-07T02:51:27;133.30;;;47.63;;
36189;SDS011;22232;50.914;13.858;2024-03-07T02:53:55;133.10;;;48.10;;
36189;SDS011;22232;50.914;13.858;2024-03-07T02:56:23;138.40;;;49.22;;
36189;SDS011;22232;50.914;13.858;2024-03-07T02:58:52;140.00;;;48.72;;
36189;SDS011;22232;50.914;13.858;2024-03-07T03:01:19;148.68;;;50.58;;
36189;SDS011;22232;50.914;13.858;2024-03-07T03:03:47;139.63;;;49.17;;
36189;SDS011;22232;50.914;13.858;2024-03-07T03:06:14;134.27;;;49.97;;
36189;SDS011;22232;50.914;13.858;2024-03-07T03:08:42;208.40;;;80.45;;
36189;SDS011;22232;50.914;13.858;2024-03-07T03:11:10;144.85;;;50.15;;
36189;SDS011;22232;50.914;13.858;2024-03-07T03:13:41;260.58;;;110.32;;
36189;SDS011;22232;50.914;13.858;2024-03-07T03:16:09;269.83;;;109.53;;
36189;SDS011;22232;50.914;13.858;2024-03-07T03:18:37;152.98;;;57.42;;
36189;SDS011;22232;50.914;13.858;2024-03-07T03:21:04;148.50;;;53.45;;
36189;SDS011;22232;50.914;13.858;2024-03-07T03:23:32;154.52;;;64.20;;
36189;SDS011;22232;50.914;13.858;2024-03-07T03:26:01;175.80;;;71.60;;
36189;SDS011;22232;50.914;13.858;2024-03-07T03:28:29;137.38;;;48.78;;
36189;SDS011;22232;50.914;13.858;2024-03-07T03:30:57;135.35;;;49.63;;
36189;SDS011;22232;50.914;13.858;2024-03-07T03:33:24;136.38;;;49.13;;
36189;SDS011;22232;50.914;13.858;2024-03-07T03:35:52;129.98;;;47.40;;
36189;SDS011;22232;50.914;13.858;2024-03-07T03:38:22;136.27;;;48.10;;
36189;SDS011;22232;50.914;13.858;2024-03-07T03:40:50;142.13;;;48.58;;
36189;SDS011;22232;50.914;13.858;2024-03-07T03:43:18;138.75;;;49.45;;
36189;SDS011;22232;50.914;13.858;2024-03-07T03:45:45;146.82;;;52.30;;
36189;SDS011;22232;50.914;13.858;2024-03-07T03:48:14;136.88;;;49.88;;
36189;SDS011;22232;50.914;13.858;2024-03-07T03:50:42;152.85;;;49.72;;
36189;SDS011;22232;50.914;13.858;2024-03-07T03:53:10;138.82;;;51.90;;
36189;SDS011;22232;50.914;13.858;2024-03-07T03:55:37;138.43;;;49.08;;
36189;SDS011;22232;50.914;13.858;2024-03-07T03:58:05;144.73;;;49.17;;
36189;SDS011;22232;50.914;13.858;2024-03-07T04:00:32;137.68;;;49.35;;
36189;SDS011;22232;50.914;13.858;2024-03-07T04:03:00;139.88;;;49.92;;
36189;SDS011;22232;50.914;13.858;2024-03-07T04:05:28;148.73;;;50.17;;
36189;SDS011;22232;50.914;13.858;2024-03-07T04:07:55;152.75;;;51.92;;
36189;SDS011;22232;50.914;13.858;2024-03-07T04:10:23;143.70;;;52.95;;
36189;SDS011;22232;50.914;13.858;2024-03-07T04:12:51;154.32;;;52.30;;
36189;SDS011;22232;50.914;13.858;2024-03-07T04:15:19;149.15;;;52.97;;
36189;SDS011;22232;50.914;13.858;2024-03-07T04:17:47;144.80;;;51.40;;
36189;SDS011;22232;50.914;13.858;2024-03-07T04:20:16;146.32;;;51.88;;
36189;SDS011;22232;50.914;13.858;2024-03-07T04:22:46;142.90;;;51.15;;
36189;SDS011;22232;50.914;13.858;2024-03-07T04:25:16;145.60;;;52.13;;
36189;SDS011;22232;50.914;13.858;2024-03-07T04:27:45;159.15;;;53.58;;
36189;SDS011;22232;50.914;13.858;2024-03-07T04:30:13;147.40;;;53.03;;
36189;SDS011;22232;50.914;13.858;2024-03-07T04:32:42;150.52;;;53.63;;
36189;SDS011;22232;50.914;13.858;2024-03-07T04:35:10;155.55;;;52.70;;
36189;SDS011;22232;50.914;13.858;2024-03-07T04:37:42;154.30;;;53.00;;
36189;SDS011;22232;50.914;13.858;2024-03-07T04:40:09;148.27;;;55.58;;
36189;SDS011;22232;50.914;13.858;2024-03-07T04:42:48;141.82;;;51.83;;
36189;SDS011;22232;50.914;13.858;2024-03-07T04:45:19;147.65;;;53.40;;
36189;SDS011;22232;50.914;13.858;2024-03-07T04:47:48;139.23;;;52.63;;
36189;SDS011;22232;50.914;13.858;2024-03-07T04:50:17;131.60;;;53.20;;
36189;SDS011;22232;50.914;13.858;2024-03-07T04:52:46;132.60;;;51.03;;
36189;SDS011;22232;50.914;13.858;2024-03-07T04:55:16;138.93;;;52.83;;
36189;SDS011;22232;50.914;13.858;2024-03-07T04:57:44;132.35;;;50.67;;
36189;SDS011;22232;50.914;13.858;2024-03-07T05:00:12;128.82;;;50.10;;
36189;SDS011;22232;50.914;13.858;2024-03-07T05:02:44;125.40;;;48.55;;
36189;SDS011;22232;50.914;13.858;2024-03-07T05:05:14;120.95;;;47.13;;
36189;SDS011;22232;50.914;13.858;2024-03-07T05:07:50;109.28;;;46.13;;
36189;SDS011;22232;50.914;13.858;2024-03-07T05:10:18;103.53;;;44.85;;
36189;SDS011;22232;50.914;13.858;2024-03-07T05:12:46;102.80;;;41.65;;
36189;SDS011;22232;50.914;13.858;2024-03-07T05:15:13;86.65;;;40.25;;
36189;SDS011;22232;50.914;13.858;2024-03-07T05:17:41;91.05;;;38.50;;
36189;SDS011;22232;50.914;13.858;2024-03-07T05:20:11;90.65;;;40.65;;
36189;SDS011;22232;50.914;13.858;2024-03-07T05:22:40;89.22;;;38.47;;
36189;SDS011;22232;50.914;13.858;2024-03-07T05:25:12;91.45;;;40.30;;
36189;SDS011;22232;50.914;13.858;2024-03-07T05:27:39;90.80;;;39.85;;
36189;SDS011;22232;50.914;13.858;2024-03-07T05:30:07;85.80;;;40.28;;
36189;SDS011;22232;50.914;13.858;2024-03-07T05:32:39;95.65;;;40.85;;
36189;SDS011;22232;50.914;13.858;2024-03-07T05:35:07;101.50;;;42.53;;
36189;SDS011;22232;50.914;13.858;2024-03-07T05:37:35;107.88;;;44.55;;
36189;SDS011;22232;50.914;13.858;2024-03-07T05:40:03;97.20;;;42.67;;
36189;SDS011;22232;50.914;13.858;2024-03-07T05:42:31;97.65;;;43.13;;
36189;SDS011;22232;50.914;13.858;2024-03-07T05:44:59;106.90;;;44.22;;
36189;SDS011;22232;50.914;13.858;2024-03-07T05:47:27;100.18;;;43.50;;
36189;SDS011;22232;50.914;13.858;2024-03-07T05:49:55;105.68;;;45.97;;
36189;SDS011;22232;50.914;13.858;2024-03-07T05:52:22;100.78;;;44.10;;
36189;SDS011;22232;50.914;13.858;2024-03-07T05:54:50;98.20;;;43.75;;
36189;SDS011;22232;50.914;13.858;2024-03-07T05:57:17;100.40;;;43.45;;
36189;SDS011;22232;50.914;13.858;2024-03-07T05:59:45;103.40;;;43.78;;
36189;SDS011;22232;50.914;13.858;2024-03-07T06:02:15;104.85;;;43.53;;
36189;SDS011;22232;50.914;13.858;2024-03-07T06:04:43;94.80;;;40.92;;
36189;SDS011;22232;50.914;13.858;2024-03-07T06:07:11;92.93;;;42.25;;
36189;SDS011;22232;50.914;13.858;2024-03-07T06:09:39;87.95;;;40.13;;
36189;SDS011;22232;50.914;13.858;2024-03-07T06:12:07;85.97;;;39.58;;
36189;SDS011;22232;50.914;13.858;2024-03-07T06:14:49;84.88;;;37.47;;
36189;SDS011;22232;50.914;13.858;2024-03-07T06:17:17;83.05;;;39.20;;
36189;SDS011;22232;50.914;13.858;2024-03-07T06:19:49;82.75;;;38.38;;
36189;SDS011;22232;50.914;13.858;2024-03-07T06:22:16;84.20;;;38.08;;
36189;SDS011;22232;50.914;13.858;2024-03-07T06:24:44;81.97;;;38.45;;
36189;SDS011;22232;50.914;13.858;2024-03-07T06:27:12;81.40;;;37.47;;
36189;SDS011;22232;50.914;13.858;2024-03-07T06:29:54;83.05;;;38.72;;
36189;SDS011;22232;50.914;13.858;2024-03-07T06:32:21;87.72;;;39.95;;
36189;SDS011;22232;50.914;13.858;2024-03-07T06:34:50;96.13;;;39.55;;
36189;SDS011;22232;50.914;13.858;2024-03-07T06:37:17;90.22;;;40.33;;
36189;SDS011;22232;50.914;13.858;2024-03-07T06:39:46;91.30;;;40.55;;
36189;SDS011;22232;50.914;13.858;2024-03-07T06:42:14;86.90;;;40.45;;
36189;SDS011;22232;50.914;13.858;2024-03-07T06:44:42;89.22;;;40.03;;
36189;SDS011;22232;50.914;13.858;2024-03-07T06:47:10;90.10;;;39.67;;
36189;SDS011;22232;50.914;13.858;2024-03-07T06:49:37;80.15;;;38.42;;
36189;SDS011;22232;50.914;13.858;2024-03-07T06:52:07;92.18;;;38.35;;
36189;SDS011;22232;50.914;13.858;2024-03-07T06:54:35;83.05;;;37.92;;
36189;SDS011;22232;50.914;13.858;2024-03-07T06:57:03;72.53;;;35.72;;
36189;SDS011;22232;50.914;13.858;2024-03-07T06:59:31;78.70;;;36.60;;
36189;SDS011;22232;50.914;13.858;2024-03-07T07:01:58;73.20;;;35.25;;
36189;SDS011;22232;50.914;13.858;2024-03-07T07:04:26;80.57;;;36.03;;
36189;SDS011;22232;50.914;13.858;2024-03-07T07:06:59;71.30;;;33.17;;
36189;SDS011;22232;50.914;13.858;2024-03-07T07:09:28;69.13;;;33.15;;
36189;SDS011;22232;50.914;13.858;2024-03-07T07:11:55;72.65;;;34.30;;
36189;SDS011;22232;50.914;13.858;2024-03-07T07:14:23;67.80;;;34.13;;
36189;SDS011;22232;50.914;13.858;2024-03-07T07:16:51;70.07;;;35.03;;
36189;SDS011;22232;50.914;13.858;2024-03-07T07:19:19;73.90;;;33.78;;
36189;SDS011;22232;50.914;13.858;2024-03-07T07:21:47;76.88;;;36.03;;
36189;SDS011;22232;50.914;13.858;2024-03-07T07:24:20;79.18;;;37.25;;
36189;SDS011;22232;50.914;13.858;2024-03-07T07:26:51;78.55;;;36.00;;
36189;SDS011;22232;50.914;13.858;2024-03-07T07:29:19;86.30;;;38.53;;
36189;SDS011;22232;50.914;13.858;2024-03-07T07:31:47;77.32;;;36.95;;
36189;SDS011;22232;50.914;13.858;2024-03-07T07:34:14;81.50;;;36.63;;
36189;SDS011;22232;50.914;13.858;2024-03-07T07:36:42;73.60;;;35.15;;
36189;SDS011;22232;50.914;13.858;2024-03-07T07:39:09;75.35;;;35.13;;
36189;SDS011;22232;50.914;13.858;2024-03-07T07:41:44;74.03;;;34.35;;
36189;SDS011;22232;50.914;13.858;2024-03-07T07:44:11;72.38;;;35.08;;
36189;SDS011;22232;50.914;13.858;2024-03-07T07:46:41;75.82;;;34.20;;
36189;SDS011;22232;50.914;13.858;2024-03-07T07:49:08;73.68;;;32.63;;
36189;SDS011;22232;50.914;13.858;2024-03-07T07:51:36;69.85;;;33.30;;
36189;SDS011;22232;50.914;13.858;2024-03-07T07:54:03;71.75;;;32.65;;
36189;SDS011;22232;50.914;13.858;2024-03-07T07:56:31;66.97;;;31.33;;
36189;SDS011;22232;50.914;13.858;2024-03-07T07:58:59;61.25;;;29.67;;
36189;SDS011;22232;50.914;13.858;2024-03-07T08:01:27;63.28;;;30.48;;
36189;SDS011;22232;50.914;13.858;2024-03-07T08:03:54;62.78;;;30.10;;
36189;SDS011;22232;50.914;13.858;2024-03-07T08:06:22;58.83;;;28.35;;
36189;SDS011;22232;50.914;13.858;2024-03-07T08:08:51;61.95;;;28.15;;
36189;SDS011;22232;50.914;13.858;2024-03-07T08:11:19;55.40;;;26.65;;
36189;SDS011;22232;50.914;13.858;2024-03-07T08:13:46;64.10;;;28.83;;
36189;SDS011;22232;50.914;13.858;2024-03-07T08:16:16;61.13;;;28.90;;
36189;SDS011;22232;50.914;13.858;2024-03-07T08:18:44;64.43;;;29.60;;
36189;SDS011;22232;50.914;13.858;2024-03-07T08:21:11;62.33;;;28.63;;
36189;SDS011;22232;50.914;13.858;2024-03-07T08:23:39;57.10;;;27.75;;
36189;SDS011;22232;50.914;13.858;2024-03-07T08:26:07;55.17;;;27.13;;
36189;SDS011;22232;50.914;13.858;2024-03-07T08:28:34;50.35;;;23.77;;
36189;SDS011;22232;50.914;13.858;2024-03-07T08:31:02;50.95;;;26.00;;
36189;SDS011;22232;50.914;13.858;2024-03-07T08:33:30;52.80;;;24.90;;
36189;SDS011;22232;50.914;13.858;2024-03-07T08:36:00;51.65;;;24.75;;
36189;SDS011;22232;50.914;13.858;2024-03-07T08:38:28;38.72;;;19.27;;
36189;SDS011;22232;50.914;13.858;2024-03-07T08:40:56;37.42;;;16.52;;
36189;SDS011;22232;50.914;13.858;2024-03-07T08:43:23;37.30;;;17.38;;
36189;SDS011;22232;50.914;13.858;2024-03-07T08:45:51;36.92;;;18.85;;
36189;SDS011;22232;50.914;13.858;2024-03-07T08:48:18;33.00;;;17.35;;
36189;SDS011;22232;50.914;13.858;2024-03-07T08:50:47;31.70;;;15.27;;
36189;SDS011;22232;50.914;13.858;2024-03-07T08:53:15;28.25;;;15.15;;
36189;SDS011;22232;50.914;13.858;2024-03-07T08:55:42;29.20;;;15.70;;
36189;SDS011;22232;50.914;13.858;2024-03-07T08:58:10;28.08;;;14.98;;
36189;SDS011;22232;50.914;13.858;2024-03-07T09:00:37;27.48;;;14.57;;
36189;SDS011;22232;50.914;13.858;2024-03-07T09:03:06;30.10;;;15.35;;
36189;SDS011;22232;50.914;13.858;2024-03-07T09:05:39;25.50;;;14.15;;
36189;SDS011;22232;50.914;13.858;2024-03-07T09:08:07;25.77;;;14.07;;
36189;SDS011;22232;50.914;13.858;2024-03-07T09:10:35;31.35;;;14.70;;
36189;SDS011;22232;50.914;13.858;2024-03-07T09:13:03;30.02;;;14.25;;
36189;SDS011;22232;50.914;13.858;2024-03-07T09:15:32;28.90;;;13.85;;
36189;SDS011;22232;50.914;13.858;2024-03-07T09:18:00;27.48;;;14.70;;
36189;SDS011;22232;50.914;13.858;2024-03-07T09:20:31;26.48;;;14.07;;
36189;SDS011;22232;50.914;13.858;2024-03-07T09:22:59;27.60;;;14.65;;
36189;SDS011;22232;50.914;13.858;2024-03-07T09:25:27;29.80;;;14.20;;
36189;SDS011;22232;50.914;13.858;2024-03-07T09:27:55;31.55;;;14.50;;
36189;SDS011;22232;50.914;13.858;2024-03-07T09:30:23;28.23;;;15.65;;
36189;SDS011;22232;50.914;13.858;2024-03-07T09:32:54;33.47;;;16.75;;
36189;SDS011;22232;50.914;13.858;2024-03-07T09:35:22;30.42;;;15.45;;
36189;SDS011;22232;50.914;13.858;2024-03-07T09:37:50;29.63;;;15.70;;
36189;SDS011;22232;50.914;13.858;2024-03-07T09:40:18;29.13;;;15.38;;
36189;SDS011;22232;50.914;13.858;2024-03-07T09:42:52;28.63;;;15.82;;
36189;SDS011;22232;50.914;13.858;2024-03-07T09:45:22;32.75;;;17.33;;
36189;SDS011;22232;50.914;13.858;2024-03-07T09:47:54;25.67;;;14.47;;
36189;SDS011;22232;50.914;13.858;2024-03-07T09:50:23;26.20;;;14.75;;
36189;SDS011;22232;50.914;13.858;2024-03-07T09:52:55;29.85;;;16.27;;
36189;SDS011;22232;50.914;13.858;2024-03-07T09:55:24;31.52;;;15.50;;
36189;SDS011;22232;50.914;13.858;2024-03-07T09:57:54;33.78;;;15.57;;
36189;SDS011;22232;50.914;13.858;2024-03-07T10:00:24;28.73;;;16.15;;
36189;SDS011;22232;50.914;13.858;2024-03-07T10:02:58;28.50;;;15.55;;
36189;SDS011;22232;50.914;13.858;2024-03-07T10:05:31;32.40;;;15.68;;
36189;SDS011;22232;50.914;13.858;2024-03-07T10:08:00;29.38;;;14.95;;
36189;SDS011;22232;50.914;13.858;2024-03-07T10:10:29;31.65;;;16.75;;
36189;SDS011;22232;50.914;13.858;2024-03-07T10:12:58;30.67;;;16.08;;
36189;SDS011;22232;50.914;13.858;2024-03-07T10:15:33;30.65;;;15.82;;
36189;SDS011;22232;50.914;13.858;2024-03-07T10:18:02;32.28;;;16.48;;
36189;SDS011;22232;50.914;13.858;2024-03-07T10:20:30;35.08;;;17.10;;
36189;SDS011;22232;50.914;13.858;2024-03-07T10:22:58;31.10;;;16.95;;
36189;SDS011;22232;50.914;13.858;2024-03-07T10:25:26;33.78;;;17.10;;
36189;SDS011;22232;50.914;13.858;2024-03-07T10:27:56;32.90;;;17.98;;
36189;SDS011;22232;50.914;13.858;2024-03-07T10:30:26;31.95;;;16.45;;
36189;SDS011;22232;50.914;13.858;2024-03-07T10:32:55;33.38;;;17.17;;
36189;SDS011;22232;50.914;13.858;2024-03-07T10:35:27;33.10;;;16.90;;
36189;SDS011;22232;50.914;13.858;2024-03-07T10:37:57;37.70;;;17.48;;
36189;SDS011;22232;50.914;13.858;2024-03-07T10:40:29;37.35;;;19.10;;
36189;SDS011;22232;50.914;13.858;2024-03-07T10:42:58;35.28;;;18.17;;
36189;SDS011;22232;50.914;13.858;2024-03-07T10:45:30;34.13;;;18.43;;
36189;SDS011;22232;50.914;13.858;2024-03-07T10:48:02;38.38;;;18.83;;
36189;SDS011;22232;50.914;13.858;2024-03-07T11:01:26;37.80;;;19.42;;
36189;SDS011;22232;50.914;13.858;2024-03-07T11:03:58;38.53;;;19.55;;
36189;SDS011;22232;50.914;13.858;2024-03-07T11:06:27;34.55;;;18.58;;
36189;SDS011;22232;50.914;13.858;2024-03-07T11:08:55;35.47;;;18.77;;
36189;SDS011;22232;50.914;13.858;2024-03-07T11:11:25;33.53;;;19.00;;
36189;SDS011;22232;50.914;13.858;2024-03-07T11:13:53;34.63;;;18.90;;
36189;SDS011;22232;50.914;13.858;2024-03-07T11:16:22;37.03;;;19.63;;
36189;SDS011;22232;50.914;13.858;2024-03-07T11:21:57;34.17;;;18.30;;
36189;SDS011;22232;50.914;13.858;2024-03-07T11:24:27;34.95;;;19.35;;
36189;SDS011;22232;50.914;13.858;2024-03-07T11:26:56;41.10;;;19.30;;
36189;SDS011;22232;50.914;13.858;2024-03-07T11:32:11;36.38;;;18.80;;
36189;SDS011;22232;50.914;13.858;2024-03-07T11:34:41;34.63;;;18.75;;
36189;SDS011;22232;50.914;13.858;2024-03-07T11:37:20;35.88;;;19.27;;
36189;SDS011;22232;50.914;13.858;2024-03-07T11:40:08;37.17;;;20.05;;
36189;SDS011;22232;50.914;13.858;2024-03-07T11:42:46;40.92;;;20.33;;
36189;SDS011;22232;50.914;13.858;2024-03-07T11:45:15;39.95;;;19.63;;
36189;SDS011;22232;50.914;13.858;2024-03-07T11:47:52;40.58;;;20.30;;
36189;SDS011;22232;50.914;13.858;2024-03-07T11:50:27;39.50;;;19.48;;
36189;SDS011;22232;50.914;13.858;2024-03-07T11:52:55;36.88;;;19.45;;
36189;SDS011;22232;50.914;13.858;2024-03-07T11:55:23;39.75;;;20.90;;
36189;SDS011;22232;50.914;13.858;2024-03-07T11:57:51;39.83;;;20.42;;
36189;SDS011;22232;50.914;13.858;2024-03-07T12:00:18;40.88;;;20.00;;
36189;SDS011;22232;50.914;13.858;2024-03-07T12:02:47;39.40;;;20.73;;
36189;SDS011;22232;50.914;13.858;2024-03-07T12:05:16;42.75;;;19.85;;
36189;SDS011;22232;50.914;13.858;2024-03-07T12:07:44;36.58;;;19.48;;
36189;SDS011;22232;50.914;13.858;2024-03-07T12:10:12;39.60;;;19.92;;
36189;SDS011;22232;50.914;13.858;2024-03-07T12:12:39;40.42;;;19.15;;
36189;SDS011;22232;50.914;13.858;2024-03-07T12:15:07;41.38;;;19.60;;
36189;SDS011;22232;50.914;13.858;2024-03-07T12:17:48;36.08;;;18.75;;
36189;SDS011;22232;50.914;13.858;2024-03-07T12:20:17;39.03;;;19.90;;
36189;SDS011;22232;50.914;13.858;2024-03-07T12:22:55;41.50;;;20.02;;
36189;SDS011;22232;50.914;13.858;2024-03-07T12:25:23;40.38;;;20.50;;
36189;SDS011;22232;50.914;13.858;2024-03-07T12:28:01;38.97;;;18.88;;
36189;SDS011;22232;50.914;13.858;2024-03-07T12:30:57;39.58;;;19.98;;
36189;SDS011;22232;50.914;13.858;2024-03-07T12:33:24;41.78;;;21.70;;
36189;SDS011;22232;50.914;13.858;2024-03-07T12:35:53;41.05;;;22.08;;
36189;SDS011;22232;50.914;13.858;2024-03-07T12:38:34;40.92;;;20.92;;
36189;SDS011;22232;50.914;13.858;2024-03-07T12:41:06;42.38;;;21.50;;
36189;SDS011;22232;50.914;13.858;2024-03-07T12:43:40;44.22;;;22.35;;
36189;SDS011;22232;50.914;13.858;2024-03-07T12:46:13;43.15;;;21.30;;
36189;SDS011;22232;50.914;13.858;2024-03-07T12:48:43;43.65;;;20.88;;
36189;SDS011;22232;50.914;13.858;2024-03-07T12:51:13;41.20;;;19.92;;
36189;SDS011;22232;50.914;13.858;2024-03-07T12:53:47;43.17;;;20.80;;
36189;SDS011;22232;50.914;13.858;2024-03-07T12:56:15;38.72;;;21.45;;
36189;SDS011;22232;50.914;13.858;2024-03-07T12:58:47;46.13;;;21.90;;
36189;SDS011;22232;50.914;13.858;2024-03-07T13:01:18;38.95;;;21.33;;
36189;SDS011;22232;50.914;13.858;2024-03-07T13:03:47;41.13;;;20.58;;
36189;SDS011;22232;50.914;13.858;2024-03-07T13:06:15;37.83;;;20.15;;
36189;SDS011;22232;50.914;13.858;2024-03-07T13:08:46;33.00;;;17.60;;
36189;SDS011;22232;50.914;13.858;2024-03-07T13:11:14;34.92;;;17.38;;
36189;SDS011;22232;50.914;13.858;2024-03-07T13:13:43;36.42;;;17.77;;
36189;SDS011;22232;50.914;13.858;2024-03-07T13:16:10;32.95;;;17.80;;
36189;SDS011;22232;50.914;13.858;2024-03-07T13:18:38;37.97;;;18.20;;
36189;SDS011;22232;50.914;13.858;2024-03-07T13:21:06;35.13;;;17.67;;
36189;SDS011;22232;50.914;13.858;2024-03-07T13:23:38;32.25;;;17.52;;
36189;SDS011;22232;50.914;13.858;2024-03-07T13:26:07;31.33;;;16.38;;
36189;SDS011;22232;50.914;13.858;2024-03-07T13:28:44;32.10;;;15.57;;
36189;SDS011;22232;50.914;13.858;2024-03-07T13:31:11;27.00;;;14.55;;
36189;SDS011;22232;50.914;13.858;2024-03-07T13:33:39;27.40;;;14.50;;
36189;SDS011;22232;50.914;13.858;2024-03-07T13:36:07;26.75;;;14.18;;
36189;SDS011;22232;50.914;13.858;2024-03-07T13:38:35;30.63;;;15.18;;
36189;SDS011;22232;50.914;13.858;2024-03-07T13:41:03;29.85;;;15.05;;
36189;SDS011;22232;50.914;13.858;2024-03-07T13:43:31;30.52;;;15.55;;
36189;SDS011;22232;50.914;13.858;2024-03-07T13:46:01;36.58;;;16.02;;
36189;SDS011;22232;50.914;13.858;2024-03-07T13:48:28;34.03;;;15.90;;
36189;SDS011;22232;50.914;13.858;2024-03-07T13:50:56;25.88;;;14.82;;
36189;SDS011;22232;50.914;13.858;2024-03-07T13:53:27;32.95;;;15.60;;
36189;SDS011;22232;50.914;13.858;2024-03-07T13:59:12;27.52;;;15.07;;
36189;SDS011;22232;50.914;13.858;2024-03-07T14:04:45;25.90;;;14.32;;
36189;SDS011;22232;50.914;13.858;2024-03-07T14:30:51;26.58;;;15.07;;
36189;SDS011;22232;50.914;13.858;2024-03-07T14:33:23;33.08;;;16.40;;
36189;SDS011;22232;50.914;13.858;2024-03-07T14:38:48;34.38;;;16.75;;
36189;SDS011;22232;50.914;13.858;2024-03-07T14:41:18;33.45;;;17.77;;
36189;SDS011;22232;50.914;13.858;2024-03-07T14:43:50;32.42;;;17.20;;
36189;SDS011;22232;50.914;13.858;2024-03-07T14:46:18;34.40;;;17.10;;
36189;SDS011;22232;50.914;13.858;2024-03-07T14:48:47;38.30;;;17.92;;
36189;SDS011;22232;50.914;13.858;2024-03-07T14:51:14;33.58;;;17.58;;
36189;SDS011;22232;50.914;13.858;2024-03-07T14:53:43;38.35;;;18.58;;
36189;SDS011;22232;50.914;13.858;2024-03-07T14:56:11;36.63;;;17.55;;
36189;SDS011;22232;50.914;13.858;2024-03-07T14:58:38;34.97;;;19.00;;
36189;SDS011;22232;50.914;13.858;2024-03-07T15:01:07;34.45;;;17.88;;
36189;SDS011;22232;50.914;13.858;2024-03-07T15:03:35;33.58;;;18.63;;
36189;SDS011;22232;50.914;13.858;2024-03-07T15:06:02;38.35;;;18.73;;